sensor_id;sensor_type;location;lat;lon;timestamp;pressure;altitude;pressure_sealevel;temperature;humidity
62655;BME280;48717;55.556;37.816;2023-03-19T00:02:07;100819.25;;;-3.39;46.10
62655;BME280;48717;55.556;37.816;2023-03-19T00:04:45;100831.25;;;-3.28;46.72
62655;BME280;48717;55.556;37.816;2023-03-19T00:07:13;100825.41;;;-3.25;46.79
62655;BME280;48717;55.556;37.816;2023-03-19T00:09:42;100824.72;;;-3.23;46.44
62655;BME280;48717;55.556;37.816;2023-03-19T00:12:10;100818.25;;;-3.30;45.97
62655;BME280;48717;55.556;37.816;2023-03-19T00:14:37;100805.72;;;-3.37;46.35
62655;BME280;48717;55.556;37.816;2023-03-19T00:17:04;100828.34;;;-3.21;45.71
62655;BME280;48717;55.556;37.816;2023-03-19T00:19:32;100825.66;;;-3.22;46.25
62655;BME280;48717;55.556;37.816;2023-03-19T00:21:59;100823.84;;;-3.23;47.16
62655;BME280;48717;55.556;37.816;2023-03-19T00:24:26;100822.94;;;-3.24;47.55
62655;BME280;48717;55.556;37.816;2023-03-19T00:26:55;100801.22;;;-3.39;47.07
62655;BME280;48717;55.556;37.816;2023-03-19T00:29:23;100802.22;;;-3.37;47.78
62655;BME280;48717;55.556;37.816;2023-03-19T00:31:51;100797.63;;;-3.42;47.97
62655;BME280;48717;55.556;37.816;2023-03-19T00:37:37;100739.09;;;-3.92;47.96
62655;BME280;48717;55.556;37.816;2023-03-19T00:40:07;100786.59;;;-3.64;48.89
62655;BME280;48717;55.556;37.816;2023-03-19T00:42:34;100818.72;;;-3.47;48.84
62655;BME280;48717;55.556;37.816;2023-03-19T00:45:03;100806.84;;;-3.45;47.80
62655;BME280;48717;55.556;37.816;2023-03-19T00:47:32;100812.88;;;-3.45;48.48
62655;BME280;48717;55.556;37.816;2023-03-19T00:49:59;100783.56;;;-3.59;48.53
62655;BME280;48717;55.556;37.816;2023-03-19T00:52:26;100785.34;;;-3.58;48.72
62655;BME280;48717;55.556;37.816;2023-03-19T00:54:53;100794.44;;;-3.63;49.23
62655;BME280;48717;55.556;37.816;2023-03-19T00:57:20;100768.78;;;-3.85;49.85
62655;BME280;48717;55.556;37.816;2023-03-19T00:59:49;100791.63;;;-3.66;48.89
62655;BME280;48717;55.556;37.816;2023-03-19T01:02:16;100771.25;;;-3.75;48.87
62655;BME280;48717;55.556;37.816;2023-03-19T01:04:43;100779.97;;;-3.73;48.94
62655;BME280;48717;55.556;37.816;2023-03-19T01:07:10;100771.03;;;-3.78;49.77
62655;BME280;48717;55.556;37.816;2023-03-19T01:09:37;100788.94;;;-3.68;48.43
62655;BME280;48717;55.556;37.816;2023-03-19T01:12:05;100777.16;;;-3.76;49.99
62655;BME280;48717;55.556;37.816;2023-03-19T01:14:33;100751.97;;;-3.92;49.16
62655;BME280;48717;55.556;37.816;2023-03-19T01:17:00;100787.94;;;-3.70;48.98
62655;BME280;48717;55.556;37.816;2023-03-19T01:19:28;100768.97;;;-3.70;48.71
62655;BME280;48717;55.556;37.816;2023-03-19T01:21:55;100779.75;;;-3.76;48.81
62655;BME280;48717;55.556;37.816;2023-03-19T01:24:23;100771.69;;;-3.81;49.51
62655;BME280;48717;55.556;37.816;2023-03-19T01:26:53;100781.66;;;-3.73;49.49
62655;BME280;48717;55.556;37.816;2023-03-19T01:29:27;100780.31;;;-3.80;49.22
62655;BME280;48717;55.556;37.816;2023-03-19T01:31:56;100791.41;;;-3.81;49.98
62655;BME280;48717;55.556;37.816;2023-03-19T01:34:41;100747.19;;;-3.99;49.72
62655;BME280;48717;55.556;37.816;2023-03-19T01:37:11;100745.81;;;-4.06;49.91
62655;BME280;48717;55.556;37.816;2023-03-19T01:39:40;100772.47;;;-3.94;49.70
62655;BME280;48717;55.556;37.816;2023-03-19T01:42:11;100784.78;;;-3.89;52.01
62655;BME280;48717;55.556;37.816;2023-03-19T01:44:48;100769.69;;;-3.97;51.29
62655;BME280;48717;55.556;37.816;2023-03-19T01:47:38;100773.81;;;-3.87;51.77
62655;BME280;48717;55.556;37.816;2023-03-19T01:50:23;100763.97;;;-3.92;50.97
62655;BME280;48717;55.556;37.816;2023-03-19T01:53:13;100763.19;;;-3.91;50.79
62655;BME280;48717;55.556;37.816;2023-03-19T01:56:04;100758.59;;;-3.96;50.88
62655;BME280;48717;55.556;37.816;2023-03-19T01:59:01;100727.56;;;-4.09;50.90
62655;BME280;48717;55.556;37.816;2023-03-19T02:01:56;100761.41;;;-3.92;51.40
62655;BME280;48717;55.556;37.816;2023-03-19T02:04:27;100740.31;;;-3.99;52.41
62655;BME280;48717;55.556;37.816;2023-03-19T02:06:59;100761.03;;;-3.85;51.46
62655;BME280;48717;55.556;37.816;2023-03-19T02:09:28;100754.00;;;-3.88;51.72
62655;BME280;48717;55.556;37.816;2023-03-19T02:11:56;100754.44;;;-3.94;51.02
62655;BME280;48717;55.556;37.816;2023-03-19T02:14:25;100759.72;;;-4.04;51.48
62655;BME280;48717;55.556;37.816;2023-03-19T02:16:53;100719.84;;;-4.21;52.63
62655;BME280;48717;55.556;37.816;2023-03-19T02:19:31;100758.03;;;-4.03;52.45
62655;BME280;48717;55.556;37.816;2023-03-19T02:22:02;100753.88;;;-4.13;51.52
62655;BME280;48717;55.556;37.816;2023-03-19T02:24:35;100706.28;;;-4.42;52.36
62655;BME280;48717;55.556;37.816;2023-03-19T02:27:09;100750.41;;;-4.26;52.98
62655;BME280;48717;55.556;37.816;2023-03-19T02:29:40;100743.22;;;-4.30;53.51
62655;BME280;48717;55.556;37.816;2023-03-19T02:32:08;100733.59;;;-4.33;52.74
62655;BME280;48717;55.556;37.816;2023-03-19T02:34:40;100749.50;;;-4.26;52.53
62655;BME280;48717;55.556;37.816;2023-03-19T02:37:10;100743.22;;;-4.30;52.02
62655;BME280;48717;55.556;37.816;2023-03-19T02:39:55;100749.97;;;-4.32;52.30
62655;BME280;48717;55.556;37.816;2023-03-19T02:42:26;100739.19;;;-4.38;53.81
62655;BME280;48717;55.556;37.816;2023-03-19T02:44:56;100750.97;;;-4.30;53.74
62655;BME280;48717;55.556;37.816;2023-03-19T02:47:24;100744.56;;;-4.35;53.28
62655;BME280;48717;55.556;37.816;2023-03-19T02:49:52;100736.19;;;-4.44;53.23
62655;BME280;48717;55.556;37.816;2023-03-19T02:52:19;100743.91;;;-4.44;53.99
62655;BME280;48717;55.556;37.816;2023-03-19T02:54:47;100758.44;;;-4.45;53.17
62655;BME280;48717;55.556;37.816;2023-03-19T02:57:14;100748.69;;;-4.49;53.15
62655;BME280;48717;55.556;37.816;2023-03-19T02:59:41;100724.94;;;-4.69;53.06
62655;BME280;48717;55.556;37.816;2023-03-19T03:02:09;100747.47;;;-4.54;53.41
62655;BME280;48717;55.556;37.816;2023-03-19T03:04:36;100740.09;;;-4.50;54.16
62655;BME280;48717;55.556;37.816;2023-03-19T03:07:04;100744.34;;;-4.50;53.55
62655;BME280;48717;55.556;37.816;2023-03-19T03:09:32;100733.13;;;-4.51;53.79
62655;BME280;48717;55.556;37.816;2023-03-19T03:11:59;100728.22;;;-4.48;54.36
62655;BME280;48717;55.556;37.816;2023-03-19T03:14:26;100700.22;;;-4.55;54.52
62655;BME280;48717;55.556;37.816;2023-03-19T03:16:53;100717.25;;;-4.45;53.19
62655;BME280;48717;55.556;37.816;2023-03-19T03:19:20;100738.06;;;-4.42;54.84
62655;BME280;48717;55.556;37.816;2023-03-19T03:21:47;100723.06;;;-4.48;54.05
62655;BME280;48717;55.556;37.816;2023-03-19T03:24:14;100735.63;;;-4.40;53.58
62655;BME280;48717;55.556;37.816;2023-03-19T03:26:41;100721.72;;;-4.42;54.38
62655;BME280;48717;55.556;37.816;2023-03-19T03:29:08;100735.38;;;-4.43;54.86
62655;BME280;48717;55.556;37.816;2023-03-19T03:31:35;100708.72;;;-4.56;54.52
62655;BME280;48717;55.556;37.816;2023-03-19T03:34:02;100733.34;;;-4.48;55.21
62655;BME280;48717;55.556;37.816;2023-03-19T03:36:30;100690.34;;;-4.73;54.24
62655;BME280;48717;55.556;37.816;2023-03-19T03:38:57;100720.81;;;-4.55;54.29
62655;BME280;48717;55.556;37.816;2023-03-19T03:41:24;100709.63;;;-4.67;54.62
62655;BME280;48717;55.556;37.816;2023-03-19T03:43:51;100730.34;;;-4.54;55.18
62655;BME280;48717;55.556;37.816;2023-03-19T03:46:18;100692.72;;;-4.76;54.74
62655;BME280;48717;55.556;37.816;2023-03-19T03:48:49;100717.47;;;-4.54;55.70
62655;BME280;48717;55.556;37.816;2023-03-19T03:51:18;100714.47;;;-4.36;54.21
62655;BME280;48717;55.556;37.816;2023-03-19T03:53:45;100708.53;;;-4.35;54.35
62655;BME280;48717;55.556;37.816;2023-03-19T03:56:13;100715.56;;;-4.33;53.94
62655;BME280;48717;55.556;37.816;2023-03-19T03:58:40;100706.63;;;-4.26;54.42
62655;BME280;48717;55.556;37.816;2023-03-19T04:01:13;100707.16;;;-4.06;53.73
62655;BME280;48717;55.556;37.816;2023-03-19T04:03:42;100705.59;;;-4.04;53.87
62655;BME280;48717;55.556;37.816;2023-03-19T04:06:18;100675.94;;;-4.23;53.20
62655;BME280;48717;55.556;37.816;2023-03-19T04:08:50;100709.41;;;-3.99;53.91
62655;BME280;48717;55.556;37.816;2023-03-19T04:11:17;100675.13;;;-3.98;52.80
62655;BME280;48717;55.556;37.816;2023-03-19T04:13:45;100679.38;;;-3.86;53.27
62655;BME280;48717;55.556;37.816;2023-03-19T04:16:12;100665.03;;;-3.95;52.41
62655;BME280;48717;55.556;37.816;2023-03-19T04:18:40;100703.63;;;-3.71;52.17
62655;BME280;48717;55.556;37.816;2023-03-19T04:21:07;100692.75;;;-3.67;52.53
62655;BME280;48717;55.556;37.816;2023-03-19T04:23:35;100685.66;;;-3.57;52.74
62655;BME280;48717;55.556;37.816;2023-03-19T04:26:04;100672.78;;;-3.57;52.16
62655;BME280;48717;55.556;37.816;2023-03-19T04:28:32;100677.34;;;-3.41;52.22
62655;BME280;48717;55.556;37.816;2023-03-19T04:31:07;100677.91;;;-3.45;52.48
62655;BME280;48717;55.556;37.816;2023-03-19T04:33:39;100682.78;;;-3.36;50.76
62655;BME280;48717;55.556;37.816;2023-03-19T04:36:06;100688.59;;;-3.27;50.70
62655;BME280;48717;55.556;37.816;2023-03-19T04:38:35;100672.94;;;-3.30;50.31
62655;BME280;48717;55.556;37.816;2023-03-19T04:41:02;100680.91;;;-3.13;50.09
62655;BME280;48717;55.556;37.816;2023-03-19T04:43:33;100686.03;;;-3.02;51.04
62655;BME280;48717;55.556;37.816;2023-03-19T04:46:02;100668.34;;;-2.95;49.88
62655;BME280;48717;55.556;37.816;2023-03-19T04:48:30;100670.28;;;-2.79;50.01
62655;BME280;48717;55.556;37.816;2023-03-19T04:50:58;100669.31;;;-2.68;48.99
62655;BME280;48717;55.556;37.816;2023-03-19T04:53:25;100665.34;;;-2.63;48.82
62655;BME280;48717;55.556;37.816;2023-03-19T04:55:52;100673.69;;;-2.40;48.20
62655;BME280;48717;55.556;37.816;2023-03-19T04:58:19;100670.13;;;-2.28;48.22
62655;BME280;48717;55.556;37.816;2023-03-19T05:00:55;100682.63;;;-2.07;47.51
62655;BME280;48717;55.556;37.816;2023-03-19T05:03:35;100671.50;;;-1.93;47.50
62655;BME280;48717;55.556;37.816;2023-03-19T05:06:02;100660.13;;;-1.81;46.57
62655;BME280;48717;55.556;37.816;2023-03-19T05:08:29;100663.28;;;-1.72;46.47
62655;BME280;48717;55.556;37.816;2023-03-19T05:10:56;100675.38;;;-1.58;45.99
62655;BME280;48717;55.556;37.816;2023-03-19T05:13:27;100680.75;;;-1.54;46.61
62655;BME280;48717;55.556;37.816;2023-03-19T05:15:54;100663.44;;;-1.55;46.38
62655;BME280;48717;55.556;37.816;2023-03-19T05:18:22;100658.06;;;-1.59;46.60
62655;BME280;48717;55.556;37.816;2023-03-19T05:20:49;100673.22;;;-1.36;46.38
62655;BME280;48717;55.556;37.816;2023-03-19T05:23:20;100643.88;;;-1.37;46.11
62655;BME280;48717;55.556;37.816;2023-03-19T05:26:00;100651.56;;;-1.23;45.96
62655;BME280;48717;55.556;37.816;2023-03-19T05:28:47;100636.78;;;-1.11;45.33
62655;BME280;48717;55.556;37.816;2023-03-19T05:31:17;100654.13;;;-0.80;44.26
62655;BME280;48717;55.556;37.816;2023-03-19T05:33:49;100659.41;;;-0.63;44.92
62655;BME280;48717;55.556;37.816;2023-03-19T05:36:16;100633.19;;;-0.53;44.05
62655;BME280;48717;55.556;37.816;2023-03-19T05:39:07;100655.84;;;-0.18;44.21
62655;BME280;48717;55.556;37.816;2023-03-19T05:41:37;100647.78;;;-0.08;43.72
62655;BME280;48717;55.556;37.816;2023-03-19T05:44:05;100648.97;;;0.14;42.46
62655;BME280;48717;55.556;37.816;2023-03-19T05:46:56;100632.78;;;0.35;42.61
62655;BME280;48717;55.556;37.816;2023-03-19T05:49:26;100644.13;;;0.70;42.22
62655;BME280;48717;55.556;37.816;2023-03-19T05:51:53;100637.78;;;0.82;41.95
62655;BME280;48717;55.556;37.816;2023-03-19T05:54:20;100608.34;;;0.81;41.14
62655;BME280;48717;55.556;37.816;2023-03-19T05:56:54;100627.44;;;1.16;40.86
62655;BME280;48717;55.556;37.816;2023-03-19T05:59:40;100617.03;;;1.35;40.48
62655;BME280;48717;55.556;37.816;2023-03-19T06:02:26;100622.94;;;1.67;39.85
62655;BME280;48717;55.556;37.816;2023-03-19T06:05:08;100614.25;;;2.04;39.13
62655;BME280;48717;55.556;37.816;2023-03-19T06:07:35;100617.09;;;2.29;39.11
62655;BME280;48717;55.556;37.816;2023-03-19T06:10:08;100617.16;;;2.50;38.75
62655;BME280;48717;55.556;37.816;2023-03-19T06:12:35;100606.34;;;2.80;37.99
62655;BME280;48717;55.556;37.816;2023-03-19T06:15:25;100604.66;;;3.02;37.63
62655;BME280;48717;55.556;37.816;2023-03-19T06:17:52;100602.44;;;3.11;37.34
62655;BME280;48717;55.556;37.816;2023-03-19T06:20:19;100603.19;;;3.51;36.72
62655;BME280;48717;55.556;37.816;2023-03-19T06:22:48;100580.94;;;3.83;36.37
62655;BME280;48717;55.556;37.816;2023-03-19T06:25:15;100600.97;;;3.84;36.45
62655;BME280;48717;55.556;37.816;2023-03-19T06:27:42;100582.63;;;3.82;36.18
62655;BME280;48717;55.556;37.816;2023-03-19T06:30:23;100573.69;;;3.98;35.98
62655;BME280;48717;55.556;37.816;2023-03-19T06:32:51;100585.84;;;4.21;35.46
62655;BME280;48717;55.556;37.816;2023-03-19T06:35:19;100572.78;;;4.21;35.56
62655;BME280;48717;55.556;37.816;2023-03-19T06:37:48;100560.59;;;4.21;35.22
62655;BME280;48717;55.556;37.816;2023-03-19T06:40:15;100579.97;;;4.51;34.80
62655;BME280;48717;55.556;37.816;2023-03-19T06:42:46;100553.72;;;4.48;35.54
62655;BME280;48717;55.556;37.816;2023-03-19T06:45:15;100576.84;;;4.61;34.63
62655;BME280;48717;55.556;37.816;2023-03-19T06:47:46;100559.84;;;4.73;34.68
62655;BME280;48717;55.556;37.816;2023-03-19T06:50:14;100566.00;;;5.01;33.97
62655;BME280;48717;55.556;37.816;2023-03-19T06:52:42;100558.66;;;5.16;33.96
62655;BME280;48717;55.556;37.816;2023-03-19T06:55:09;100552.97;;;5.30;33.74
62655;BME280;48717;55.556;37.816;2023-03-19T06:57:38;100554.63;;;5.54;33.05
62655;BME280;48717;55.556;37.816;2023-03-19T07:00:05;100544.16;;;5.54;33.38
62655;BME280;48717;55.556;37.816;2023-03-19T07:02:33;100550.69;;;5.68;32.96
62655;BME280;48717;55.556;37.816;2023-03-19T07:05:00;100564.00;;;6.04;32.40
62655;BME280;48717;55.556;37.816;2023-03-19T07:07:28;100544.00;;;6.38;32.42
62655;BME280;48717;55.556;37.816;2023-03-19T07:09:55;100551.78;;;6.67;31.97
62655;BME280;48717;55.556;37.816;2023-03-19T07:12:22;100561.91;;;6.87;31.62
62655;BME280;48717;55.556;37.816;2023-03-19T07:14:49;100545.41;;;6.91;31.76
62655;BME280;48717;55.556;37.816;2023-03-19T07:17:16;100548.19;;;6.97;31.69
62655;BME280;48717;55.556;37.816;2023-03-19T07:19:43;100547.84;;;6.85;31.64
62655;BME280;48717;55.556;37.816;2023-03-19T07:22:11;100552.50;;;6.95;31.15
62655;BME280;48717;55.556;37.816;2023-03-19T07:24:38;100540.84;;;7.19;31.58
62655;BME280;48717;55.556;37.816;2023-03-19T07:27:06;100545.16;;;7.52;30.86
62655;BME280;48717;55.556;37.816;2023-03-19T07:29:33;100549.09;;;7.73;30.11
62655;BME280;48717;55.556;37.816;2023-03-19T07:32:00;100549.19;;;8.19;30.09
62655;BME280;48717;55.556;37.816;2023-03-19T07:34:27;100535.34;;;8.73;29.26
62655;BME280;48717;55.556;37.816;2023-03-19T07:36:54;100543.16;;;9.19;29.26
62655;BME280;48717;55.556;37.816;2023-03-19T07:39:21;100539.03;;;9.35;28.15
62655;BME280;48717;55.556;37.816;2023-03-19T07:41:48;100528.03;;;9.64;27.76
62655;BME280;48717;55.556;37.816;2023-03-19T07:44:15;100531.91;;;9.91;27.44
62655;BME280;48717;55.556;37.816;2023-03-19T07:46:43;100515.44;;;10.08;26.89
62655;BME280;48717;55.556;37.816;2023-03-19T07:49:17;100515.69;;;10.30;26.71
62655;BME280;48717;55.556;37.816;2023-03-19T07:51:44;100524.25;;;10.89;26.33
62655;BME280;48717;55.556;37.816;2023-03-19T07:54:12;100457.28;;;10.78;25.54
62655;BME280;48717;55.556;37.816;2023-03-19T07:56:40;100453.09;;;11.03;25.92
62655;BME280;48717;55.556;37.816;2023-03-19T07:59:08;100454.06;;;11.16;25.51
62655;BME280;48717;55.556;37.816;2023-03-19T08:01:36;100388.88;;;11.00;25.18
62655;BME280;48717;55.556;37.816;2023-03-19T08:04:06;100385.00;;;10.51;25.32
62655;BME280;48717;55.556;37.816;2023-03-19T08:06:34;100508.47;;;10.99;25.29
62655;BME280;48717;55.556;37.816;2023-03-19T08:09:01;100471.63;;;11.14;24.98
62655;BME280;48717;55.556;37.816;2023-03-19T08:11:28;100450.69;;;11.42;24.68
62655;BME280;48717;55.556;37.816;2023-03-19T08:13:56;100410.19;;;11.37;24.62
62655;BME280;48717;55.556;37.816;2023-03-19T08:16:23;100486.22;;;12.00;24.41
62655;BME280;48717;55.556;37.816;2023-03-19T08:18:50;100481.03;;;12.35;23.35
62655;BME280;48717;55.556;37.816;2023-03-19T08:21:18;100421.06;;;12.21;23.52
62655;BME280;48717;55.556;37.816;2023-03-19T08:23:45;100479.22;;;12.07;23.91
62655;BME280;48717;55.556;37.816;2023-03-19T08:26:13;100464.06;;;11.70;24.88
62655;BME280;48717;55.556;37.816;2023-03-19T08:28:40;100473.59;;;11.42;24.60
62655;BME280;48717;55.556;37.816;2023-03-19T08:31:10;100467.88;;;10.81;25.22
62655;BME280;48717;55.556;37.816;2023-03-19T08:33:38;100482.31;;;10.34;25.98
62655;BME280;48717;55.556;37.816;2023-03-19T08:36:09;100484.47;;;9.91;27.00
62655;BME280;48717;55.556;37.816;2023-03-19T08:38:38;100469.38;;;9.78;26.29
62655;BME280;48717;55.556;37.816;2023-03-19T08:41:10;100472.28;;;9.97;26.39
62655;BME280;48717;55.556;37.816;2023-03-19T08:43:38;100402.31;;;10.25;26.21
62655;BME280;48717;55.556;37.816;2023-03-19T08:46:08;100403.53;;;10.60;25.63
62655;BME280;48717;55.556;37.816;2023-03-19T08:48:39;100404.53;;;10.78;25.78
62655;BME280;48717;55.556;37.816;2023-03-19T08:51:07;100436.63;;;11.42;24.93
62655;BME280;48717;55.556;37.816;2023-03-19T08:53:37;100428.00;;;11.91;24.50
62655;BME280;48717;55.556;37.816;2023-03-19T08:56:05;100466.97;;;12.36;24.04
62655;BME280;48717;55.556;37.816;2023-03-19T08:58:36;100465.09;;;12.07;24.27
62655;BME280;48717;55.556;37.816;2023-03-19T09:01:05;100465.34;;;10.92;25.20
62655;BME280;48717;55.556;37.816;2023-03-19T09:03:33;100461.66;;;10.76;25.25
62655;BME280;48717;55.556;37.816;2023-03-19T09:06:01;100444.53;;;11.39;25.71
62655;BME280;48717;55.556;37.816;2023-03-19T09:08:29;100447.13;;;11.37;25.03
62655;BME280;48717;55.556;37.816;2023-03-19T09:10:57;100445.16;;;11.02;25.31
62655;BME280;48717;55.556;37.816;2023-03-19T09:13:24;100417.28;;;10.31;26.13
62655;BME280;48717;55.556;37.816;2023-03-19T09:15:52;100453.47;;;10.44;27.15
62655;BME280;48717;55.556;37.816;2023-03-19T09:18:22;100438.66;;;10.56;26.35
62655;BME280;48717;55.556;37.816;2023-03-19T09:20:53;100423.38;;;10.24;27.04
62655;BME280;48717;55.556;37.816;2023-03-19T09:23:21;100414.66;;;10.29;26.80
62655;BME280;48717;55.556;37.816;2023-03-19T09:25:54;100436.16;;;10.72;26.57
62655;BME280;48717;55.556;37.816;2023-03-19T09:28:21;100407.66;;;10.33;26.95
62655;BME280;48717;55.556;37.816;2023-03-19T09:30:49;100412.56;;;9.99;27.10
62655;BME280;48717;55.556;37.816;2023-03-19T09:33:24;100371.53;;;9.40;27.71
62655;BME280;48717;55.556;37.816;2023-03-19T09:35:52;100422.75;;;9.68;28.42
62655;BME280;48717;55.556;37.816;2023-03-19T09:38:20;100330.84;;;9.13;29.01
62655;BME280;48717;55.556;37.816;2023-03-19T09:44:01;100391.44;;;9.96;28.13
62655;BME280;48717;55.556;37.816;2023-03-19T09:46:43;100409.41;;;10.34;28.21
62655;BME280;48717;55.556;37.816;2023-03-19T09:49:29;100400.22;;;9.95;28.46
62655;BME280;48717;55.556;37.816;2023-03-19T09:54:55;100395.41;;;9.56;28.90
62655;BME280;48717;55.556;37.816;2023-03-19T09:57:24;100325.84;;;9.35;28.22
62655;BME280;48717;55.556;37.816;2023-03-19T09:59:51;100353.44;;;9.70;28.47
62655;BME280;48717;55.556;37.816;2023-03-19T10:04:56;100380.91;;;9.96;28.40
62655;BME280;48717;55.556;37.816;2023-03-19T10:13:34;100362.44;;;10.96;27.09
62655;BME280;48717;55.556;37.816;2023-03-19T10:16:22;100367.75;;;11.00;26.72
62655;BME280;48717;55.556;37.816;2023-03-19T10:18:53;100346.75;;;11.21;27.16
62655;BME280;48717;55.556;37.816;2023-03-19T10:24:08;100373.28;;;11.49;25.92
62655;BME280;48717;55.556;37.816;2023-03-19T10:26:38;100375.13;;;11.75;26.20
62655;BME280;48717;55.556;37.816;2023-03-19T10:31:51;100345.25;;;11.92;25.00
62655;BME280;48717;55.556;37.816;2023-03-19T10:34:36;100358.38;;;11.73;25.97
62655;BME280;48717;55.556;37.816;2023-03-19T10:39:43;100352.34;;;12.34;25.39
62655;BME280;48717;55.556;37.816;2023-03-19T10:45:28;100354.94;;;11.98;26.08
62655;BME280;48717;55.556;37.816;2023-03-19T10:47:58;100350.56;;;12.58;25.47
62655;BME280;48717;55.556;37.816;2023-03-19T10:50:30;100346.09;;;11.93;26.17
62655;BME280;48717;55.556;37.816;2023-03-19T10:58:29;100201.59;;;11.35;26.57
62655;BME280;48717;55.556;37.816;2023-03-19T11:01:08;100213.06;;;12.47;25.13
62655;BME280;48717;55.556;37.816;2023-03-19T11:03:38;100328.13;;;13.82;23.79
62655;BME280;48717;55.556;37.816;2023-03-19T11:08:56;100314.66;;;14.15;23.41
62655;BME280;48717;55.556;37.816;2023-03-19T11:11:47;100257.38;;;13.90;23.14
62655;BME280;48717;55.556;37.816;2023-03-19T11:14:19;100323.09;;;14.57;23.00
62655;BME280;48717;55.556;37.816;2023-03-19T11:19:38;100294.19;;;14.26;24.30
62655;BME280;48717;55.556;37.816;2023-03-19T11:22:13;100297.97;;;14.96;22.64
62655;BME280;48717;55.556;37.816;2023-03-19T11:24:58;100311.78;;;15.26;23.12
62655;BME280;48717;55.556;37.816;2023-03-19T11:27:33;100304.72;;;15.25;23.09
62655;BME280;48717;55.556;37.816;2023-03-19T11:30:12;100268.81;;;15.60;22.12
62655;BME280;48717;55.556;37.816;2023-03-19T11:32:46;100292.97;;;16.06;22.38
62655;BME280;48717;55.556;37.816;2023-03-19T11:35:28;100280.03;;;15.17;22.73
62655;BME280;48717;55.556;37.816;2023-03-19T11:37:58;100289.31;;;14.75;23.21
62655;BME280;48717;55.556;37.816;2023-03-19T11:40:50;100287.75;;;14.58;23.63
62655;BME280;48717;55.556;37.816;2023-03-19T11:46:26;100283.09;;;15.53;22.93
62655;BME280;48717;55.556;37.816;2023-03-19T12:05:07;100264.59;;;14.76;23.54
62655;BME280;48717;55.556;37.816;2023-03-19T12:13:30;100235.38;;;16.54;22.10
62655;BME280;48717;55.556;37.816;2023-03-19T12:18:57;100248.72;;;15.40;22.93
62655;BME280;48717;55.556;37.816;2023-03-19T12:27:37;100222.16;;;15.99;22.43
62655;BME280;48717;55.556;37.816;2023-03-19T12:33:32;100212.59;;;16.84;21.08
62655;BME280;48717;55.556;37.816;2023-03-19T12:36:08;100113.75;;;16.99;20.74
62655;BME280;48717;55.556;37.816;2023-03-19T12:39:16;100142.00;;;17.06;20.30
62655;BME280;48717;55.556;37.816;2023-03-19T12:41:46;100110.19;;;16.57;20.87
62655;BME280;48717;55.556;37.816;2023-03-19T12:44:24;100160.22;;;17.26;20.73
62655;BME280;48717;55.556;37.816;2023-03-19T12:46:55;100192.56;;;17.48;20.68
62655;BME280;48717;55.556;37.816;2023-03-19T12:49:41;100194.88;;;17.64;20.58
62655;BME280;48717;55.556;37.816;2023-03-19T12:52:25;100157.72;;;16.77;21.02
62655;BME280;48717;55.556;37.816;2023-03-19T13:00:45;100185.72;;;16.53;21.92
62655;BME280;48717;55.556;37.816;2023-03-19T13:03:40;100176.59;;;16.66;21.61
62655;BME280;48717;55.556;37.816;2023-03-19T13:06:14;100180.94;;;17.13;20.87
62655;BME280;48717;55.556;37.816;2023-03-19T13:08:51;100171.88;;;16.79;21.37
62655;BME280;48717;55.556;37.816;2023-03-19T13:14:11;100166.38;;;15.96;21.95
62655;BME280;48717;55.556;37.816;2023-03-19T13:19:30;100092.94;;;15.85;22.23
62655;BME280;48717;55.556;37.816;2023-03-19T13:22:14;100123.59;;;16.54;22.02
62655;BME280;48717;55.556;37.816;2023-03-19T13:24:43;100138.94;;;16.39;21.82
62655;BME280;48717;55.556;37.816;2023-03-19T13:27:30;100149.13;;;16.18;22.02
62655;BME280;48717;55.556;37.816;2023-03-19T13:32:43;100132.81;;;16.36;22.36
62655;BME280;48717;55.556;37.816;2023-03-19T13:38:38;100136.97;;;16.03;22.02
62655;BME280;48717;55.556;37.816;2023-03-19T13:43:59;100130.91;;;15.42;22.40
62655;BME280;48717;55.556;37.816;2023-03-19T13:46:38;100105.56;;;15.19;23.09
62655;BME280;48717;55.556;37.816;2023-03-19T13:51:39;100108.88;;;14.72;22.94
62655;BME280;48717;55.556;37.816;2023-03-19T13:54:18;100109.28;;;14.41;23.83
62655;BME280;48717;55.556;37.816;2023-03-19T13:57:03;100121.78;;;14.29;24.10
62655;BME280;48717;55.556;37.816;2023-03-19T13:59:33;100097.91;;;14.29;24.05
62655;BME280;48717;55.556;37.816;2023-03-19T14:07:41;100123.03;;;13.97;24.60
62655;BME280;48717;55.556;37.816;2023-03-19T14:10:21;100008.22;;;12.93;25.65
62655;BME280;48717;55.556;37.816;2023-03-19T14:12:51;100115.91;;;12.85;25.98
62655;BME280;48717;55.556;37.816;2023-03-19T14:15:27;100091.53;;;11.95;27.06
62655;BME280;48717;55.556;37.816;2023-03-19T14:17:59;100117.13;;;11.65;28.05
62655;BME280;48717;55.556;37.816;2023-03-19T14:20:31;100132.97;;;11.34;28.18
62655;BME280;48717;55.556;37.816;2023-03-19T14:31:00;100103.59;;;10.22;30.19
62655;BME280;48717;55.556;37.816;2023-03-19T14:33:42;100085.97;;;10.11;30.38
62655;BME280;48717;55.556;37.816;2023-03-19T14:36:14;100078.69;;;9.66;30.46
62655;BME280;48717;55.556;37.816;2023-03-19T14:38:49;100088.16;;;9.39;31.56
62655;BME280;48717;55.556;37.816;2023-03-19T14:41:22;100097.75;;;9.37;31.64
62655;BME280;48717;55.556;37.816;2023-03-19T14:46:32;100105.09;;;8.78;33.00
62655;BME280;48717;55.556;37.816;2023-03-19T14:54:45;100078.94;;;8.18;33.35
62655;BME280;48717;55.556;37.816;2023-03-19T14:57:16;100094.56;;;8.05;34.28
62655;BME280;48717;55.556;37.816;2023-03-19T14:59:44;100090.66;;;7.78;34.28
62655;BME280;48717;55.556;37.816;2023-03-19T15:04:45;100074.31;;;7.38;35.27
62655;BME280;48717;55.556;37.816;2023-03-19T15:07:20;100093.31;;;7.24;35.97
62655;BME280;48717;55.556;37.816;2023-03-19T15:09:53;100110.63;;;7.13;36.58